Terminal Aerodrome Forecast
Issued by NWS

Home | Current Version | Previous Version | Text Only | Print | Product List | Glossary On
Versions: 1 2 3 4 5 6 7 8 9 10 11 12 13 14 15 16 17 18 19 20 21 22 23 24 25 26
000
FTUS41 KOKX 231720
TAFHPN
TAF
KHPN 231720Z 2318/2418 20006KT 5SM BR SCT007 BKN015
     FM231900 20005KT P6SM SCT030
     FM240100 19003KT 6SM BR BKN015
     FM240400 VRB02KT 2SM BR BKN006
     FM240600 VRB02KT 1SM BR BKN006
     FM241500 19006KT 3SM BR SCT005 BKN015
      AMD NOT SKED=

USA.gov is the U.S. government's official web portal to all federal, state and local government web resources and services.